createdAt,value
2018-11-11T00:00:18.445Z,5.67
2018-11-11T00:02:46.235Z,5.63
2018-11-11T00:05:13.791Z,5.57
2018-11-11T00:07:41.894Z,6.33
2018-11-11T00:10:09.403Z,6.00
2018-11-11T00:12:37.351Z,6.57
2018-11-11T00:15:06.433Z,6.83
2018-11-11T00:17:33.952Z,7.10
2018-11-11T00:20:01.490Z,8.20
2018-11-11T00:22:29.085Z,6.77
2018-11-11T00:24:56.565Z,7.57
2018-11-11T00:27:24.306Z,7.30
2018-11-11T00:29:51.761Z,6.53
2018-11-11T00:32:19.321Z,7.07
2018-11-11T00:34:46.837Z,7.60
2018-11-11T00:37:14.683Z,7.27
2018-11-11T00:39:42.242Z,7.80
2018-11-11T00:42:09.720Z,8.60
2018-11-11T00:44:37.181Z,8.10
2018-11-11T00:47:05.030Z,8.20
2018-11-11T00:49:32.738Z,8.90
2018-11-11T00:52:00.298Z,8.67
2018-11-11T00:54:27.708Z,8.97
2018-11-11T00:56:55.237Z,8.77
2018-11-11T00:59:22.645Z,8.40
2018-11-11T01:01:50.349Z,7.60
2018-11-11T01:04:17.933Z,8.00
2018-11-11T01:06:45.688Z,8.23
2018-11-11T01:09:13.288Z,8.77
2018-11-11T01:11:40.958Z,8.20
2018-11-11T01:14:08.435Z,9.00
2018-11-11T01:16:36.005Z,9.43
2018-11-11T01:19:03.726Z,8.47
2018-11-11T01:21:31.214Z,8.27
2018-11-11T01:23:58.679Z,7.43
2018-11-11T01:26:26.376Z,8.17
2018-11-11T01:28:53.952Z,8.70
2018-11-11T01:31:21.494Z,8.10
2018-11-11T01:33:49.203Z,7.47
2018-11-11T01:36:17.348Z,7.50
2018-11-11T01:38:45.433Z,7.80
2018-11-11T01:41:12.946Z,8.73
2018-11-11T01:43:40.510Z,7.67
2018-11-11T01:46:08.069Z,7.73
2018-11-11T01:48:35.864Z,9.10
2018-11-11T01:51:03.364Z,7.23
2018-11-11T01:56:08.110Z,8.17
2018-11-11T01:58:37.265Z,8.37
2018-11-11T02:01:04.942Z,8.50
2018-11-11T02:03:32.484Z,8.53
2018-11-11T02:06:00.042Z,7.97
2018-11-11T02:08:28.545Z,8.00
2018-11-11T02:10:57.334Z,8.03
2018-11-11T02:13:25.158Z,8.70
2018-11-11T02:15:52.594Z,7.67
2018-11-11T02:18:20.155Z,8.30
2018-11-11T02:20:47.640Z,8.37
2018-11-11T02:23:15.162Z,9.40
2018-11-11T02:25:42.650Z,8.70
2018-11-11T02:28:10.226Z,8.80
2018-11-11T02:30:37.723Z,8.40
2018-11-11T02:33:05.573Z,7.30
2018-11-11T02:35:33.030Z,8.17
2018-11-11T02:38:00.545Z,8.37
2018-11-11T02:40:28.151Z,8.70
2018-11-11T02:42:55.534Z,8.37
2018-11-11T02:45:23.176Z,8.33
2018-11-11T02:47:50.826Z,8.57
2018-11-11T02:50:19.064Z,9.23
2018-11-11T02:52:47.397Z,9.17
2018-11-11T02:55:15.451Z,8.43
2018-11-11T02:57:43.614Z,7.70
2018-11-11T03:00:13.327Z,7.97
2018-11-11T03:02:41.637Z,8.00
2018-11-11T03:05:10.421Z,9.67
2018-11-11T03:07:38.249Z,9.27
2018-11-11T03:10:06.233Z,9.33
2018-11-11T03:12:33.848Z,8.80
2018-11-11T03:15:01.273Z,9.97
2018-11-11T03:17:29.046Z,9.37
2018-11-11T03:19:56.788Z,11.23
2018-11-11T03:22:24.379Z,9.10
2018-11-11T03:24:52.013Z,8.80
2018-11-11T03:27:19.629Z,8.90
2018-11-11T03:29:47.215Z,10.10
2018-11-11T03:32:14.716Z,10.80
2018-11-11T03:34:42.758Z,9.87
2018-11-11T03:37:10.310Z,11.20
2018-11-11T03:39:37.804Z,10.60
2018-11-11T03:42:05.614Z,10.23
2018-11-11T03:44:33.079Z,9.73
2018-11-11T03:47:00.566Z,10.03
2018-11-11T03:49:28.251Z,10.83
2018-11-11T03:51:55.825Z,12.17
2018-11-11T03:54:23.305Z,12.80
2018-11-11T03:56:50.926Z,11.40
2018-11-11T03:59:18.341Z,11.63
2018-11-11T04:01:45.988Z,11.77
2018-11-11T04:04:13.409Z,12.80
2018-11-11T04:06:41.510Z,12.00
2018-11-11T04:09:10.875Z,12.47
2018-11-11T04:11:38.871Z,12.70
2018-11-11T04:14:06.530Z,12.53
2018-11-11T04:16:34.171Z,13.53
2018-11-11T04:19:01.628Z,13.20
2018-11-11T04:21:29.074Z,14.27
2018-11-11T04:23:56.526Z,15.40
2018-11-11T04:26:24.003Z,14.70
2018-11-11T04:28:51.597Z,15.30
2018-11-11T04:31:19.206Z,15.13
2018-11-11T04:33:46.658Z,13.70
2018-11-11T04:36:14.138Z,15.27
2018-11-11T04:38:41.619Z,13.17
2018-11-11T04:41:09.082Z,12.33
2018-11-11T04:43:36.531Z,13.13
2018-11-11T04:46:04.132Z,11.73
2018-11-11T04:48:31.632Z,12.97
2018-11-11T04:50:59.071Z,13.00
2018-11-11T04:53:26.546Z,12.53
2018-11-11T04:55:54.006Z,12.20
2018-11-11T04:58:21.693Z,10.40
2018-11-11T05:00:49.185Z,10.63
2018-11-11T05:03:16.612Z,11.77
2018-11-11T05:05:44.003Z,11.40
2018-11-11T05:08:11.569Z,11.10
2018-11-11T05:10:39.022Z,10.27
2018-11-11T05:13:06.462Z,9.90
2018-11-11T05:15:35.559Z,9.17
2018-11-11T05:18:02.948Z,9.63
2018-11-11T05:20:30.558Z,10.20
2018-11-11T05:22:58.079Z,9.03
2018-11-11T05:25:25.643Z,10.50
2018-11-11T05:27:53.182Z,9.17
2018-11-11T05:30:20.817Z,8.40
2018-11-11T05:32:48.248Z,8.57
2018-11-11T05:35:15.955Z,8.90
2018-11-11T05:37:43.420Z,8.67
2018-11-11T05:40:11.943Z,8.40
2018-11-11T05:42:40.016Z,8.20
2018-11-11T05:45:08.530Z,8.20
2018-11-11T05:47:36.113Z,9.13
2018-11-11T05:50:03.937Z,8.23
2018-11-11T05:52:31.387Z,7.93
2018-11-11T05:54:58.859Z,8.03
2018-11-11T05:57:26.387Z,7.37
2018-11-11T05:59:53.933Z,8.17
2018-11-11T06:02:21.397Z,8.13
2018-11-11T06:04:48.924Z,8.23
2018-11-11T06:07:16.473Z,8.10
2018-11-11T06:09:43.964Z,8.90
2018-11-11T06:12:11.388Z,8.67
2018-11-11T06:14:39.087Z,10.60
2018-11-11T06:17:06.574Z,8.90
2018-11-11T06:19:34.015Z,9.90
2018-11-11T06:22:01.565Z,10.17
2018-11-11T06:24:29.152Z,9.90
2018-11-11T06:26:56.672Z,9.27
2018-11-11T06:29:24.155Z,10.93
2018-11-11T06:31:51.695Z,10.50
2018-11-11T06:34:19.136Z,11.00
2018-11-11T06:36:46.619Z,10.60
2018-11-11T06:39:14.047Z,10.70
2018-11-11T06:41:41.502Z,10.30
2018-11-11T06:44:09.393Z,10.43
2018-11-11T06:46:36.901Z,10.60
2018-11-11T06:49:04.623Z,11.47
2018-11-11T06:51:32.248Z,11.10
2018-11-11T06:53:59.655Z,10.03
2018-11-11T06:56:27.323Z,11.70
2018-11-11T06:58:55.001Z,11.27
2018-11-11T07:01:22.544Z,11.50
2018-11-11T07:03:54.386Z,10.73
2018-11-11T07:06:22.286Z,10.53
2018-11-11T07:08:49.998Z,9.60
2018-11-11T07:11:18.385Z,10.03
2018-11-11T07:13:45.935Z,8.40
2018-11-11T07:16:13.966Z,8.13
2018-11-11T07:18:42.264Z,8.37
2018-11-11T07:21:09.984Z,7.00
2018-11-11T07:23:37.463Z,8.40
2018-11-11T07:26:05.290Z,7.63
2018-11-11T07:28:32.795Z,7.07
2018-11-11T07:31:00.462Z,7.13
2018-11-11T07:33:28.338Z,7.83
2018-11-11T07:35:55.850Z,7.70
2018-11-11T07:38:23.240Z,8.17
2018-11-11T07:40:50.839Z,7.23
2018-11-11T07:43:18.594Z,7.30
2018-11-11T07:45:46.426Z,7.00
2018-11-11T07:48:14.023Z,5.93
2018-11-11T07:50:41.551Z,5.50
2018-11-11T07:53:09.012Z,6.60
2018-11-11T07:55:36.533Z,6.37
2018-11-11T07:58:04.096Z,5.53
2018-11-11T08:00:31.605Z,4.10
2018-11-11T08:02:59.290Z,3.40
2018-11-11T08:05:26.742Z,4.00
2018-11-11T08:07:54.182Z,3.20
2018-11-11T08:10:33.042Z,3.83
2018-11-11T08:13:00.514Z,3.30
2018-11-11T08:15:27.925Z,3.00
2018-11-11T08:17:55.614Z,3.17
2018-11-11T08:20:23.310Z,2.57
2018-11-11T08:22:50.750Z,2.73
2018-11-11T08:25:18.371Z,3.10
2018-11-11T08:27:45.919Z,2.50
2018-11-11T08:30:13.560Z,2.23
2018-11-11T08:32:41.091Z,2.73
2018-11-11T08:35:09.279Z,2.33
2018-11-11T08:37:37.262Z,2.10
2018-11-11T08:40:05.574Z,2.43
2018-11-11T08:42:33.015Z,2.40
2018-11-11T08:45:00.594Z,2.90
2018-11-11T08:47:28.125Z,2.10
2018-11-11T08:49:55.664Z,3.20
2018-11-11T08:52:23.231Z,2.30
2018-11-11T08:54:50.766Z,2.90
2018-11-11T08:57:18.357Z,2.70
2018-11-11T08:59:45.877Z,3.07
2018-11-11T09:02:13.495Z,3.27
2018-11-11T09:04:41.110Z,2.73
2018-11-11T09:07:08.758Z,3.33
2018-11-11T09:09:36.259Z,3.70
2018-11-11T09:12:04.211Z,3.53
2018-11-11T09:14:31.746Z,3.93
2018-11-11T09:16:59.353Z,2.70
2018-11-11T09:19:26.797Z,3.33
2018-11-11T09:21:54.351Z,3.20
2018-11-11T09:24:21.829Z,3.47
2018-11-11T09:26:49.331Z,3.20
2018-11-11T09:29:16.894Z,3.03
2018-11-11T09:31:44.460Z,3.33
2018-11-11T09:34:11.879Z,3.37
2018-11-11T09:36:39.347Z,3.27
2018-11-11T09:39:09.381Z,3.00
2018-11-11T09:41:36.751Z,4.00
2018-11-11T09:44:04.917Z,3.20
2018-11-11T09:46:32.559Z,3.07
2018-11-11T09:49:00.044Z,3.43
2018-11-11T09:51:27.603Z,3.33
2018-11-11T09:53:55.146Z,2.77
2018-11-11T09:56:22.665Z,3.07
2018-11-11T09:58:50.156Z,3.20
2018-11-11T10:01:17.707Z,3.67
2018-11-11T10:04:04.134Z,2.80
2018-11-11T10:07:08.117Z,3.20
2018-11-11T10:09:44.807Z,2.90
2018-11-11T10:12:17.732Z,2.90
2018-11-11T10:14:51.007Z,2.40
2018-11-11T10:18:21.866Z,2.30
2018-11-11T10:20:54.952Z,2.73
2018-11-11T10:23:33.171Z,3.10
2018-11-11T10:26:07.414Z,2.40
2018-11-11T10:28:40.674Z,2.57
2018-11-11T10:31:12.504Z,3.10
2018-11-11T10:33:44.754Z,2.90
2018-11-11T10:36:19.823Z,2.87
2018-11-11T10:38:53.118Z,2.30
2018-11-11T10:41:26.188Z,2.60
2018-11-11T10:43:57.593Z,2.70
2018-11-11T10:46:28.589Z,2.10
2018-11-11T10:49:01.248Z,2.20
2018-11-11T10:51:28.937Z,3.10
2018-11-11T10:53:56.379Z,2.40
2018-11-11T10:56:23.902Z,2.50
2018-11-11T10:58:51.732Z,1.97
2018-11-11T11:01:25.027Z,2.10
2018-11-11T11:03:52.483Z,2.13
2018-11-11T11:06:25.839Z,2.23
2018-11-11T11:08:59.147Z,2.10
2018-11-11T11:11:26.801Z,2.30
2018-11-11T11:13:54.314Z,1.97
2018-11-11T11:16:21.810Z,2.07
2018-11-11T11:18:49.331Z,2.00
2018-11-11T11:21:16.899Z,1.80
2018-11-11T11:23:44.352Z,1.97
2018-11-11T11:26:11.945Z,2.10
2018-11-11T11:28:39.407Z,2.10
2018-11-11T11:31:06.865Z,2.13
2018-11-11T11:33:34.388Z,1.90
2018-11-11T11:36:01.861Z,1.77
2018-11-11T11:38:29.414Z,2.50
2018-11-11T11:40:56.933Z,2.33
2018-11-11T11:43:24.354Z,2.30
2018-11-11T11:45:51.887Z,1.90
2018-11-11T11:48:19.640Z,2.03
2018-11-11T11:50:47.181Z,1.97
2018-11-11T11:53:14.758Z,1.90
2018-11-11T11:55:42.401Z,1.70
2018-11-11T11:58:20.843Z,1.93
2018-11-11T12:00:48.847Z,2.07
2018-11-11T12:03:16.383Z,1.60
2018-11-11T12:05:44.539Z,2.17
2018-11-11T12:08:12.064Z,2.20
2018-11-11T12:10:39.589Z,2.20
2018-11-11T12:13:08.141Z,1.87
2018-11-11T12:15:35.817Z,1.90
2018-11-11T12:18:03.563Z,1.70
2018-11-11T12:20:31.281Z,1.57
2018-11-11T12:22:59.170Z,1.87
2018-11-11T12:25:26.619Z,2.23
2018-11-11T12:27:54.295Z,1.80
2018-11-11T12:30:22.551Z,1.73
2018-11-11T12:32:50.154Z,1.80
2018-11-11T12:35:17.690Z,1.60
2018-11-11T12:37:45.170Z,1.93
2018-11-11T12:40:12.963Z,1.90
2018-11-11T12:42:42.181Z,1.77
2018-11-11T12:45:16.607Z,1.83
2018-11-11T12:47:44.248Z,1.90
2018-11-11T12:50:12.823Z,1.50
2018-11-11T12:52:40.235Z,1.87
2018-11-11T12:55:08.115Z,1.70
2018-11-11T12:57:35.880Z,2.20
2018-11-11T13:00:04.305Z,1.80
2018-11-11T13:02:32.039Z,1.97
2018-11-11T13:04:59.538Z,1.80
2018-11-11T13:07:27.044Z,1.90
2018-11-11T13:09:54.529Z,2.00
2018-11-11T13:12:22.404Z,3.20
2018-11-11T13:14:49.867Z,2.53
2018-11-11T13:17:17.415Z,2.50
2018-11-11T13:19:45.036Z,2.43
2018-11-11T13:22:12.787Z,2.10
2018-11-11T13:24:40.382Z,1.77
2018-11-11T13:27:08.242Z,1.97
2018-11-11T13:29:35.763Z,2.00
2018-11-11T13:32:03.617Z,1.60
2018-11-11T13:34:31.090Z,1.80
2018-11-11T13:36:58.742Z,1.77
2018-11-11T13:39:26.358Z,1.60
2018-11-11T13:41:54.118Z,1.50
2018-11-11T13:44:21.909Z,1.70
2018-11-11T13:46:49.562Z,1.70
2018-11-11T13:49:16.930Z,1.77
2018-11-11T13:51:44.524Z,1.60
2018-11-11T13:54:11.956Z,2.03
2018-11-11T13:56:39.476Z,1.70
2018-11-11T13:59:07.194Z,2.20
2018-11-11T14:01:34.844Z,1.97
2018-11-11T14:04:02.460Z,1.70
2018-11-11T14:06:30.015Z,1.63
2018-11-11T14:08:57.692Z,1.90
2018-11-11T14:11:25.373Z,2.20
2018-11-11T14:13:53.498Z,2.20
2018-11-11T14:16:20.948Z,2.10
2018-11-11T14:18:48.574Z,1.50
2018-11-11T14:21:15.949Z,1.87
2018-11-11T14:23:43.406Z,1.70
2018-11-11T14:26:11.106Z,1.83
2018-11-11T14:28:38.659Z,1.60
2018-11-11T14:31:06.429Z,1.83
2018-11-11T14:33:33.968Z,2.10
2018-11-11T14:36:01.701Z,2.10
2018-11-11T14:38:29.282Z,1.73
2018-11-11T14:40:56.869Z,2.17
2018-11-11T14:43:24.396Z,1.50
2018-11-11T14:45:52.040Z,1.90
2018-11-11T14:48:19.498Z,1.60
2018-11-11T14:50:46.968Z,1.90
2018-11-11T14:53:14.413Z,2.57
2018-11-11T14:55:41.872Z,1.90
2018-11-11T14:58:09.401Z,2.03
2018-11-11T15:00:36.971Z,1.80
2018-11-11T15:03:08.820Z,2.00
2018-11-11T15:05:36.361Z,2.83
2018-11-11T15:08:04.119Z,3.20
2018-11-11T15:10:31.664Z,1.50
2018-11-11T15:12:59.405Z,2.50
2018-11-11T15:15:27.127Z,2.47
2018-11-11T15:17:55.535Z,2.60
2018-11-11T15:20:23.097Z,2.10
2018-11-11T15:22:50.460Z,2.07
2018-11-11T15:25:20.469Z,2.10
2018-11-11T15:27:48.083Z,2.47
2018-11-11T15:30:18.156Z,2.40
2018-11-11T15:32:46.182Z,1.80
2018-11-11T15:35:13.764Z,2.33
2018-11-11T15:37:41.340Z,1.70
2018-11-11T15:40:11.332Z,2.30
2018-11-11T15:42:39.252Z,2.17
2018-11-11T15:45:11.533Z,2.10
2018-11-11T15:47:39.513Z,2.47
2018-11-11T15:50:11.978Z,2.17
2018-11-11T15:52:40.114Z,2.20
2018-11-11T15:55:09.584Z,1.80
2018-11-11T15:57:37.388Z,1.77
2018-11-11T16:00:07.703Z,2.50
2018-11-11T16:02:35.215Z,1.97
2018-11-11T16:05:02.843Z,2.07
2018-11-11T16:07:30.338Z,1.97
2018-11-11T16:09:57.800Z,2.03
2018-11-11T16:12:25.426Z,2.70
2018-11-11T16:14:53.103Z,1.80
2018-11-11T16:17:20.628Z,3.50
2018-11-11T16:19:48.179Z,2.30
2018-11-11T16:22:15.698Z,2.50
2018-11-11T16:24:43.257Z,2.77
2018-11-11T16:27:10.878Z,1.93
2018-11-11T16:29:38.507Z,2.93
2018-11-11T16:32:06.108Z,2.40
2018-11-11T16:34:33.607Z,3.00
2018-11-11T16:37:01.050Z,2.30
2018-11-11T16:39:28.539Z,2.27
2018-11-11T16:41:56.057Z,3.40
2018-11-11T16:44:23.509Z,3.00
2018-11-11T16:46:51.000Z,4.37
2018-11-11T16:49:18.496Z,2.10
2018-11-11T16:51:46.076Z,2.33
2018-11-11T16:54:13.611Z,2.63
2018-11-11T16:56:41.163Z,2.57
2018-11-11T16:59:08.691Z,3.00
2018-11-11T17:01:36.252Z,4.77
2018-11-11T17:04:03.947Z,2.30
2018-11-11T17:06:31.421Z,2.23
2018-11-11T17:08:58.879Z,2.57
2018-11-11T17:11:26.437Z,1.90
2018-11-11T17:13:53.875Z,2.10
2018-11-11T17:16:21.338Z,2.57
2018-11-11T17:18:48.848Z,2.53
2018-11-11T17:21:16.319Z,2.50
2018-11-11T17:23:43.742Z,2.17
2018-11-11T17:26:11.262Z,2.60
2018-11-11T17:28:38.782Z,2.57
2018-11-11T17:31:06.267Z,2.57
2018-11-11T17:33:33.891Z,2.67
2018-11-11T17:36:01.406Z,2.70
2018-11-11T17:38:28.851Z,2.23
2018-11-11T17:40:56.362Z,2.33
2018-11-11T17:43:23.833Z,3.10
2018-11-11T17:45:51.340Z,2.20
2018-11-11T17:48:18.883Z,2.60
2018-11-11T17:50:46.318Z,2.47
2018-11-11T17:53:13.865Z,1.93
2018-11-11T17:55:41.523Z,2.60
2018-11-11T17:58:08.911Z,2.30
2018-11-11T18:00:36.578Z,2.40
2018-11-11T18:03:04.543Z,2.70
2018-11-11T18:05:32.310Z,2.90
2018-11-11T18:08:00.113Z,1.90
2018-11-11T18:10:27.914Z,2.20
2018-11-11T18:12:55.483Z,2.33
2018-11-11T18:15:25.445Z,2.17
2018-11-11T18:17:53.101Z,2.27
2018-11-11T18:20:22.069Z,2.70
2018-11-11T18:22:50.557Z,2.43
2018-11-11T18:25:18.062Z,2.23
2018-11-11T18:27:45.660Z,1.70
2018-11-11T18:30:18.975Z,2.17
2018-11-11T18:32:46.718Z,2.27
2018-11-11T18:35:15.712Z,2.23
2018-11-11T18:37:43.219Z,2.07
2018-11-11T18:40:12.460Z,2.10
2018-11-11T18:42:39.867Z,2.27
2018-11-11T18:45:10.180Z,2.20
2018-11-11T18:47:37.758Z,1.87
2018-11-11T18:50:08.636Z,2.33
2018-11-11T18:52:36.302Z,2.40
2018-11-11T18:55:04.620Z,2.70
2018-11-11T18:57:32.166Z,2.43
2018-11-11T18:59:59.742Z,2.70
2018-11-11T19:02:27.222Z,1.90
2018-11-11T19:04:54.730Z,2.80
2018-11-11T19:07:23.794Z,1.93
2018-11-11T19:09:51.346Z,2.30
2018-11-11T19:12:18.935Z,2.70
2018-11-11T19:14:46.391Z,2.23
2018-11-11T19:17:13.907Z,2.20
2018-11-11T19:19:41.419Z,2.77
2018-11-11T19:22:09.114Z,2.27
2018-11-11T19:24:36.831Z,2.00
2018-11-11T19:27:04.579Z,2.07
2018-11-11T19:29:32.072Z,2.23
2018-11-11T19:31:59.568Z,2.27
2018-11-11T19:34:27.061Z,2.40
2018-11-11T19:36:54.677Z,2.07
2018-11-11T19:39:22.107Z,2.90
2018-11-11T19:41:49.974Z,2.30
2018-11-11T19:44:17.445Z,2.40
2018-11-11T19:46:45.075Z,3.10
2018-11-11T19:49:12.771Z,2.70
2018-11-11T19:51:40.362Z,2.77
2018-11-11T19:54:07.833Z,3.33
2018-11-11T19:56:35.373Z,3.27
2018-11-11T19:59:02.903Z,2.50
2018-11-11T20:01:30.537Z,2.87
2018-11-11T20:03:58.104Z,3.23
2018-11-11T20:06:25.704Z,2.30
2018-11-11T20:08:53.160Z,3.10
2018-11-11T20:11:20.835Z,2.77
2018-11-11T20:13:48.299Z,2.57
2018-11-11T20:16:15.827Z,3.20
2018-11-11T20:18:43.423Z,3.13
2018-11-11T20:21:10.932Z,2.40
2018-11-11T20:23:38.427Z,3.20
2018-11-11T20:26:05.893Z,2.87
2018-11-11T20:28:33.421Z,2.30
2018-11-11T20:31:00.961Z,2.73
2018-11-11T20:33:28.434Z,2.10
2018-11-11T20:35:55.934Z,2.83
2018-11-11T20:38:23.411Z,2.60
2018-11-11T20:40:50.904Z,3.10
2018-11-11T20:43:18.478Z,2.37
2018-11-11T20:45:46.016Z,3.27
2018-11-11T20:48:13.573Z,3.03
2018-11-11T20:50:41.143Z,3.27
2018-11-11T20:53:08.572Z,2.67
2018-11-11T20:55:36.159Z,2.83
2018-11-11T20:58:04.293Z,3.10
2018-11-11T21:00:34.151Z,3.57
2018-11-11T21:03:01.636Z,2.70
2018-11-11T21:05:29.601Z,2.50
2018-11-11T21:07:57.168Z,2.70
2018-11-11T21:10:25.814Z,2.53
2018-11-11T21:12:53.712Z,3.60
2018-11-11T21:15:22.586Z,3.30
2018-11-11T21:17:50.325Z,2.73
2018-11-11T21:20:33.795Z,2.90
2018-11-11T21:23:01.370Z,2.80
2018-11-11T21:25:29.006Z,2.70
2018-11-11T21:27:56.499Z,3.53
2018-11-11T21:30:25.539Z,3.40
2018-11-11T21:32:53.200Z,3.43
2018-11-11T21:35:20.815Z,2.77
2018-11-11T21:37:48.421Z,3.37
2018-11-11T21:40:17.209Z,2.93
2018-11-11T21:42:45.744Z,2.77
2018-11-11T21:45:14.669Z,2.70
2018-11-11T21:47:42.583Z,3.73
2018-11-11T21:50:14.974Z,3.80
2018-11-11T21:52:44.119Z,2.70
2018-11-11T21:55:11.647Z,2.83
2018-11-11T21:57:39.226Z,3.07
2018-11-11T22:00:09.125Z,3.00
2018-11-11T22:02:36.619Z,2.40
2018-11-11T22:05:05.841Z,2.77
2018-11-11T22:07:33.383Z,4.10
2018-11-11T22:10:00.896Z,2.90
2018-11-11T22:12:28.429Z,3.00
2018-11-11T22:14:56.017Z,3.33
2018-11-11T22:17:23.558Z,3.20
2018-11-11T22:19:51.183Z,3.20
2018-11-11T22:22:18.695Z,2.93
2018-11-11T22:24:46.241Z,3.07
2018-11-11T22:27:13.763Z,2.97
2018-11-11T22:29:41.243Z,2.57
2018-11-11T22:32:08.745Z,2.97
2018-11-11T22:34:36.285Z,3.10
2018-11-11T22:37:03.797Z,3.07
2018-11-11T22:39:31.227Z,3.60
2018-11-11T22:41:58.776Z,2.90
2018-11-11T22:44:26.205Z,3.00
2018-11-11T22:46:53.784Z,2.93
2018-11-11T22:49:21.295Z,2.67
2018-11-11T22:51:49.105Z,3.03
2018-11-11T22:54:16.697Z,3.00
2018-11-11T22:56:44.216Z,3.57
2018-11-11T22:59:11.669Z,3.93
2018-11-11T23:01:39.104Z,3.40
2018-11-11T23:04:06.534Z,3.00
2018-11-11T23:06:34.005Z,3.20
2018-11-11T23:09:01.530Z,2.90
2018-11-11T23:11:29.199Z,3.70
2018-11-11T23:13:56.760Z,3.77
2018-11-11T23:16:24.275Z,3.10
2018-11-11T23:18:51.915Z,2.83
2018-11-11T23:21:19.485Z,2.90
2018-11-11T23:23:46.985Z,3.00
2018-11-11T23:26:14.530Z,2.90
2018-11-11T23:28:41.963Z,2.70
2018-11-11T23:31:09.519Z,3.13
2018-11-11T23:33:37.279Z,2.73
2018-11-11T23:36:05.169Z,3.00
2018-11-11T23:38:32.868Z,2.73
2018-11-11T23:41:00.412Z,3.10
2018-11-11T23:43:27.807Z,3.97
2018-11-11T23:45:55.288Z,3.80
2018-11-11T23:48:22.788Z,3.47
2018-11-11T23:50:50.321Z,2.87
2018-11-11T23:53:17.909Z,3.63
2018-11-11T23:55:45.387Z,3.47
2018-11-11T23:58:12.926Z,3.67
